sensor_id;sensor_type;location;lat;lon;timestamp;P1;durP1;ratioP1;P2;durP2;ratioP2
46551;SDS011;32278;51.810;4.712;2022-07-12T00:00:54;2.25;;;1.73;;
46551;SDS011;32278;51.810;4.712;2022-07-12T00:03:20;2.00;;;1.80;;
46551;SDS011;32278;51.810;4.712;2022-07-12T00:05:46;6.13;;;2.13;;
46551;SDS011;32278;51.810;4.712;2022-07-12T00:08:11;5.00;;;2.10;;
46551;SDS011;32278;51.810;4.712;2022-07-12T00:10:37;4.00;;;2.72;;
46551;SDS011;32278;51.810;4.712;2022-07-12T00:13:03;3.65;;;2.72;;
46551;SDS011;32278;51.810;4.712;2022-07-12T00:15:29;4.72;;;2.80;;
46551;SDS011;32278;51.810;4.712;2022-07-12T00:17:55;2.60;;;2.40;;
46551;SDS011;32278;51.810;4.712;2022-07-12T00:20:21;5.13;;;3.05;;
46551;SDS011;32278;51.810;4.712;2022-07-12T00:22:47;3.50;;;2.53;;
46551;SDS011;32278;51.810;4.712;2022-07-12T00:25:12;5.15;;;2.92;;
46551;SDS011;32278;51.810;4.712;2022-07-12T00:27:39;5.65;;;3.03;;
46551;SDS011;32278;51.810;4.712;2022-07-12T00:30:05;3.20;;;2.80;;
46551;SDS011;32278;51.810;4.712;2022-07-12T00:32:32;3.88;;;3.25;;
46551;SDS011;32278;51.810;4.712;2022-07-12T00:34:58;8.82;;;3.33;;
46551;SDS011;32278;51.810;4.712;2022-07-12T00:37:24;2.97;;;2.40;;
46551;SDS011;32278;51.810;4.712;2022-07-12T00:39:50;2.70;;;2.50;;
46551;SDS011;32278;51.810;4.712;2022-07-12T00:42:16;5.18;;;2.70;;
46551;SDS011;32278;51.810;4.712;2022-07-12T00:44:41;4.05;;;3.20;;
46551;SDS011;32278;51.810;4.712;2022-07-12T00:47:07;5.20;;;2.90;;
46551;SDS011;32278;51.810;4.712;2022-07-12T00:49:50;4.32;;;3.00;;
46551;SDS011;32278;51.810;4.712;2022-07-12T00:52:16;3.40;;;2.90;;
46551;SDS011;32278;51.810;4.712;2022-07-12T00:54:42;7.65;;;3.33;;
46551;SDS011;32278;51.810;4.712;2022-07-12T00:57:08;7.40;;;2.90;;
46551;SDS011;32278;51.810;4.712;2022-07-12T00:59:34;6.00;;;3.70;;
46551;SDS011;32278;51.810;4.712;2022-07-12T01:01:59;3.90;;;3.42;;
46551;SDS011;32278;51.810;4.712;2022-07-12T01:04:25;4.45;;;2.88;;
46551;SDS011;32278;51.810;4.712;2022-07-12T01:06:51;5.65;;;3.80;;
46551;SDS011;32278;51.810;4.712;2022-07-12T01:09:16;3.50;;;3.00;;
46551;SDS011;32278;51.810;4.712;2022-07-12T01:11:42;4.78;;;2.90;;
46551;SDS011;32278;51.810;4.712;2022-07-12T01:14:08;3.60;;;2.85;;
46551;SDS011;32278;51.810;4.712;2022-07-12T01:16:34;4.28;;;2.97;;
46551;SDS011;32278;51.810;4.712;2022-07-12T01:19:03;3.35;;;2.85;;
46551;SDS011;32278;51.810;4.712;2022-07-12T01:21:31;3.45;;;3.00;;
46551;SDS011;32278;51.810;4.712;2022-07-12T01:24:02;2.97;;;2.67;;
46551;SDS011;32278;51.810;4.712;2022-07-12T01:26:29;4.70;;;3.25;;
46551;SDS011;32278;51.810;4.712;2022-07-12T01:28:55;5.32;;;3.40;;
46551;SDS011;32278;51.810;4.712;2022-07-12T01:31:22;6.38;;;3.47;;
46551;SDS011;32278;51.810;4.712;2022-07-12T01:33:48;4.65;;;3.83;;
46551;SDS011;32278;51.810;4.712;2022-07-12T01:36:15;4.20;;;3.75;;
46551;SDS011;32278;51.810;4.712;2022-07-12T01:38:41;16.17;;;4.88;;
46551;SDS011;32278;51.810;4.712;2022-07-12T01:41:07;5.05;;;4.30;;
46551;SDS011;32278;51.810;4.712;2022-07-12T01:43:33;6.45;;;4.10;;
46551;SDS011;32278;51.810;4.712;2022-07-12T01:46:00;5.30;;;3.78;;
46551;SDS011;32278;51.810;4.712;2022-07-12T01:48:25;6.18;;;4.50;;
46551;SDS011;32278;51.810;4.712;2022-07-12T01:50:51;7.25;;;4.82;;
46551;SDS011;32278;51.810;4.712;2022-07-12T01:53:17;5.13;;;4.63;;
46551;SDS011;32278;51.810;4.712;2022-07-12T01:55:43;4.75;;;4.35;;
46551;SDS011;32278;51.810;4.712;2022-07-12T01:58:09;6.93;;;4.30;;
46551;SDS011;32278;51.810;4.712;2022-07-12T02:00:38;4.85;;;4.40;;
46551;SDS011;32278;51.810;4.712;2022-07-12T02:03:04;4.65;;;4.25;;
46551;SDS011;32278;51.810;4.712;2022-07-12T02:05:29;6.28;;;5.53;;
46551;SDS011;32278;51.810;4.712;2022-07-12T02:07:55;5.88;;;5.15;;
46551;SDS011;32278;51.810;4.712;2022-07-12T02:10:21;7.72;;;5.25;;
46551;SDS011;32278;51.810;4.712;2022-07-12T02:12:47;6.80;;;5.45;;
46551;SDS011;32278;51.810;4.712;2022-07-12T02:15:12;5.88;;;5.38;;
46551;SDS011;32278;51.810;4.712;2022-07-12T02:17:38;5.60;;;5.10;;
46551;SDS011;32278;51.810;4.712;2022-07-12T02:20:04;5.28;;;4.47;;
46551;SDS011;32278;51.810;4.712;2022-07-12T02:22:30;6.60;;;5.10;;
46551;SDS011;32278;51.810;4.712;2022-07-12T02:24:56;8.98;;;5.53;;
46551;SDS011;32278;51.810;4.712;2022-07-12T02:27:21;5.28;;;4.65;;
46551;SDS011;32278;51.810;4.712;2022-07-12T02:29:47;6.13;;;5.32;;
46551;SDS011;32278;51.810;4.712;2022-07-12T02:32:12;6.45;;;4.50;;
46551;SDS011;32278;51.810;4.712;2022-07-12T02:34:39;5.57;;;4.75;;
46551;SDS011;32278;51.810;4.712;2022-07-12T02:37:04;8.20;;;5.57;;
46551;SDS011;32278;51.810;4.712;2022-07-12T02:39:30;8.27;;;4.85;;
46551;SDS011;32278;51.810;4.712;2022-07-12T02:41:55;5.18;;;4.70;;
46551;SDS011;32278;51.810;4.712;2022-07-12T02:44:21;7.47;;;5.10;;
46551;SDS011;32278;51.810;4.712;2022-07-12T02:46:47;4.80;;;4.40;;
46551;SDS011;32278;51.810;4.712;2022-07-12T02:49:12;9.70;;;5.95;;
46551;SDS011;32278;51.810;4.712;2022-07-12T02:51:38;7.90;;;5.85;;
46551;SDS011;32278;51.810;4.712;2022-07-12T02:54:04;7.53;;;5.32;;
46551;SDS011;32278;51.810;4.712;2022-07-12T02:56:29;7.07;;;5.35;;
46551;SDS011;32278;51.810;4.712;2022-07-12T02:58:55;5.53;;;5.00;;
46551;SDS011;32278;51.810;4.712;2022-07-12T03:01:20;6.07;;;5.22;;
46551;SDS011;32278;51.810;4.712;2022-07-12T03:03:46;7.40;;;4.78;;
46551;SDS011;32278;51.810;4.712;2022-07-12T03:06:12;7.00;;;5.85;;
46551;SDS011;32278;51.810;4.712;2022-07-12T03:08:37;6.90;;;6.05;;
46551;SDS011;32278;51.810;4.712;2022-07-12T03:11:03;8.07;;;6.32;;
46551;SDS011;32278;51.810;4.712;2022-07-12T03:13:29;6.90;;;6.20;;
46551;SDS011;32278;51.810;4.712;2022-07-12T03:15:54;9.20;;;6.53;;
46551;SDS011;32278;51.810;4.712;2022-07-12T03:18:20;7.25;;;5.90;;
46551;SDS011;32278;51.810;4.712;2022-07-12T03:20:47;9.40;;;6.70;;
46551;SDS011;32278;51.810;4.712;2022-07-12T03:23:13;11.27;;;7.30;;
46551;SDS011;32278;51.810;4.712;2022-07-12T03:25:39;7.43;;;6.25;;
46551;SDS011;32278;51.810;4.712;2022-07-12T03:28:04;9.50;;;6.40;;
46551;SDS011;32278;51.810;4.712;2022-07-12T03:30:30;8.85;;;6.55;;
46551;SDS011;32278;51.810;4.712;2022-07-12T03:32:56;6.70;;;6.10;;
46551;SDS011;32278;51.810;4.712;2022-07-12T03:35:21;8.07;;;7.28;;
46551;SDS011;32278;51.810;4.712;2022-07-12T03:37:50;7.00;;;6.30;;
46551;SDS011;32278;51.810;4.712;2022-07-12T03:40:18;9.20;;;6.85;;
46551;SDS011;32278;51.810;4.712;2022-07-12T03:42:45;9.40;;;6.50;;
46551;SDS011;32278;51.810;4.712;2022-07-12T03:45:12;6.75;;;6.03;;
46551;SDS011;32278;51.810;4.712;2022-07-12T03:47:39;5.63;;;5.13;;
46551;SDS011;32278;51.810;4.712;2022-07-12T03:50:05;7.05;;;6.32;;
46551;SDS011;32278;51.810;4.712;2022-07-12T03:52:32;7.35;;;6.03;;
46551;SDS011;32278;51.810;4.712;2022-07-12T03:54:58;8.32;;;6.20;;
46551;SDS011;32278;51.810;4.712;2022-07-12T03:57:24;6.70;;;6.00;;
46551;SDS011;32278;51.810;4.712;2022-07-12T03:59:51;7.63;;;6.10;;
46551;SDS011;32278;51.810;4.712;2022-07-12T04:02:17;6.63;;;5.82;;
46551;SDS011;32278;51.810;4.712;2022-07-12T04:04:43;8.88;;;7.38;;
46551;SDS011;32278;51.810;4.712;2022-07-12T04:07:09;7.85;;;7.05;;
46551;SDS011;32278;51.810;4.712;2022-07-12T04:09:34;8.73;;;7.82;;
46551;SDS011;32278;51.810;4.712;2022-07-12T04:12:00;8.90;;;8.00;;
46551;SDS011;32278;51.810;4.712;2022-07-12T04:14:26;8.60;;;7.78;;
46551;SDS011;32278;51.810;4.712;2022-07-12T04:16:53;8.80;;;8.00;;
46551;SDS011;32278;51.810;4.712;2022-07-12T04:19:19;8.23;;;7.53;;
46551;SDS011;32278;51.810;4.712;2022-07-12T04:21:48;9.68;;;8.02;;
46551;SDS011;32278;51.810;4.712;2022-07-12T04:24:14;8.57;;;7.57;;
46551;SDS011;32278;51.810;4.712;2022-07-12T04:26:40;9.73;;;7.78;;
46551;SDS011;32278;51.810;4.712;2022-07-12T04:29:05;8.70;;;7.95;;
46551;SDS011;32278;51.810;4.712;2022-07-12T04:31:31;8.82;;;7.65;;
46551;SDS011;32278;51.810;4.712;2022-07-12T04:33:56;8.73;;;7.78;;
46551;SDS011;32278;51.810;4.712;2022-07-12T04:36:22;9.35;;;7.55;;
46551;SDS011;32278;51.810;4.712;2022-07-12T04:38:48;8.88;;;8.15;;
46551;SDS011;32278;51.810;4.712;2022-07-12T04:41:13;8.80;;;7.63;;
46551;SDS011;32278;51.810;4.712;2022-07-12T04:43:39;11.82;;;8.30;;
46551;SDS011;32278;51.810;4.712;2022-07-12T04:46:08;8.82;;;7.97;;
46551;SDS011;32278;51.810;4.712;2022-07-12T04:48:34;11.25;;;7.63;;
46551;SDS011;32278;51.810;4.712;2022-07-12T04:51:00;8.52;;;7.63;;
46551;SDS011;32278;51.810;4.712;2022-07-12T04:53:26;10.45;;;8.23;;
46551;SDS011;32278;51.810;4.712;2022-07-12T04:55:55;8.63;;;7.82;;
46551;SDS011;32278;51.810;4.712;2022-07-12T04:58:22;8.98;;;8.15;;
46551;SDS011;32278;51.810;4.712;2022-07-12T05:00:48;12.25;;;7.57;;
46551;SDS011;32278;51.810;4.712;2022-07-12T05:03:14;8.27;;;7.47;;
46551;SDS011;32278;51.810;4.712;2022-07-12T05:05:39;9.73;;;8.07;;
46551;SDS011;32278;51.810;4.712;2022-07-12T05:08:05;11.73;;;9.30;;
46551;SDS011;32278;51.810;4.712;2022-07-12T05:10:31;11.02;;;8.57;;
46551;SDS011;32278;51.810;4.712;2022-07-12T05:12:56;9.65;;;8.75;;
46551;SDS011;32278;51.810;4.712;2022-07-12T05:15:22;10.65;;;9.65;;
46551;SDS011;32278;51.810;4.712;2022-07-12T05:17:48;9.75;;;8.75;;
46551;SDS011;32278;51.810;4.712;2022-07-12T05:20:14;9.93;;;9.00;;
46551;SDS011;32278;51.810;4.712;2022-07-12T05:22:39;11.00;;;9.30;;
46551;SDS011;32278;51.810;4.712;2022-07-12T05:25:06;10.50;;;9.50;;
46551;SDS011;32278;51.810;4.712;2022-07-12T05:27:33;9.63;;;8.73;;
46551;SDS011;32278;51.810;4.712;2022-07-12T05:30:02;12.35;;;9.13;;
46551;SDS011;32278;51.810;4.712;2022-07-12T05:32:29;11.23;;;10.05;;
46551;SDS011;32278;51.810;4.712;2022-07-12T05:34:54;9.60;;;8.65;;
46551;SDS011;32278;51.810;4.712;2022-07-12T05:37:20;10.07;;;9.02;;
46551;SDS011;32278;51.810;4.712;2022-07-12T05:39:48;9.73;;;8.68;;
46551;SDS011;32278;51.810;4.712;2022-07-12T05:42:14;12.45;;;9.82;;
46551;SDS011;32278;51.810;4.712;2022-07-12T05:44:39;10.88;;;9.80;;
46551;SDS011;32278;51.810;4.712;2022-07-12T05:47:05;12.85;;;11.00;;
46551;SDS011;32278;51.810;4.712;2022-07-12T05:49:30;12.18;;;10.05;;
46551;SDS011;32278;51.810;4.712;2022-07-12T05:51:56;18.77;;;11.70;;
46551;SDS011;32278;51.810;4.712;2022-07-12T05:54:40;14.48;;;9.77;;
46551;SDS011;32278;51.810;4.712;2022-07-12T05:57:06;14.02;;;10.82;;
46551;SDS011;32278;51.810;4.712;2022-07-12T05:59:34;21.38;;;11.55;;
46551;SDS011;32278;51.810;4.712;2022-07-12T06:01:59;17.60;;;10.90;;
46551;SDS011;32278;51.810;4.712;2022-07-12T06:04:25;14.13;;;11.15;;
46551;SDS011;32278;51.810;4.712;2022-07-12T06:06:50;11.80;;;10.57;;
46551;SDS011;32278;51.810;4.712;2022-07-12T06:09:16;12.15;;;10.88;;
46551;SDS011;32278;51.810;4.712;2022-07-12T06:11:42;16.20;;;10.80;;
46551;SDS011;32278;51.810;4.712;2022-07-12T06:14:07;13.38;;;11.82;;
46551;SDS011;32278;51.810;4.712;2022-07-12T06:16:33;11.25;;;10.10;;
46551;SDS011;32278;51.810;4.712;2022-07-12T06:18:58;11.10;;;9.90;;
46551;SDS011;32278;51.810;4.712;2022-07-12T06:21:24;13.05;;;10.88;;
46551;SDS011;32278;51.810;4.712;2022-07-12T06:23:50;12.88;;;9.93;;
46551;SDS011;32278;51.810;4.712;2022-07-12T06:26:15;12.52;;;11.00;;
46551;SDS011;32278;51.810;4.712;2022-07-12T06:28:41;11.93;;;10.73;;
46551;SDS011;32278;51.810;4.712;2022-07-12T06:31:06;16.42;;;10.35;;
46551;SDS011;32278;51.810;4.712;2022-07-12T06:33:32;13.05;;;10.70;;
46551;SDS011;32278;51.810;4.712;2022-07-12T06:35:59;12.48;;;9.95;;
46551;SDS011;32278;51.810;4.712;2022-07-12T06:38:25;11.68;;;9.82;;
46551;SDS011;32278;51.810;4.712;2022-07-12T06:40:50;15.77;;;10.50;;
46551;SDS011;32278;51.810;4.712;2022-07-12T06:43:16;10.90;;;9.77;;
46551;SDS011;32278;51.810;4.712;2022-07-12T06:45:41;12.43;;;10.80;;
46551;SDS011;32278;51.810;4.712;2022-07-12T06:48:07;11.68;;;10.50;;
46551;SDS011;32278;51.810;4.712;2022-07-12T06:50:33;11.73;;;10.32;;
46551;SDS011;32278;51.810;4.712;2022-07-12T06:52:59;14.05;;;10.20;;
46551;SDS011;32278;51.810;4.712;2022-07-12T06:55:24;14.60;;;11.98;;
46551;SDS011;32278;51.810;4.712;2022-07-12T06:57:51;12.80;;;10.38;;
46551;SDS011;32278;51.810;4.712;2022-07-12T07:00:16;10.88;;;9.68;;
46551;SDS011;32278;51.810;4.712;2022-07-12T07:02:42;12.48;;;10.95;;
46551;SDS011;32278;51.810;4.712;2022-07-12T07:05:07;10.65;;;9.65;;
46551;SDS011;32278;51.810;4.712;2022-07-12T07:07:33;11.95;;;9.50;;
46551;SDS011;32278;51.810;4.712;2022-07-12T07:09:59;12.88;;;9.32;;
46551;SDS011;32278;51.810;4.712;2022-07-12T07:12:25;10.75;;;9.07;;
46551;SDS011;32278;51.810;4.712;2022-07-12T07:14:50;14.45;;;8.15;;
46551;SDS011;32278;51.810;4.712;2022-07-12T07:17:16;9.32;;;8.10;;
46551;SDS011;32278;51.810;4.712;2022-07-12T07:19:42;10.98;;;8.95;;
46551;SDS011;32278;51.810;4.712;2022-07-12T07:22:09;13.02;;;8.80;;
46551;SDS011;32278;51.810;4.712;2022-07-12T07:24:35;11.55;;;8.98;;
46551;SDS011;32278;51.810;4.712;2022-07-12T07:27:01;8.85;;;7.95;;
46551;SDS011;32278;51.810;4.712;2022-07-12T07:29:26;9.30;;;8.43;;
46551;SDS011;32278;51.810;4.712;2022-07-12T07:32:11;11.32;;;7.95;;
46551;SDS011;32278;51.810;4.712;2022-07-12T07:34:36;8.98;;;7.97;;
46551;SDS011;32278;51.810;4.712;2022-07-12T07:37:02;9.13;;;8.07;;
46551;SDS011;32278;51.810;4.712;2022-07-12T07:39:28;7.53;;;6.82;;
46551;SDS011;32278;51.810;4.712;2022-07-12T07:41:54;9.13;;;8.18;;
46551;SDS011;32278;51.810;4.712;2022-07-12T07:44:19;10.02;;;8.30;;
46551;SDS011;32278;51.810;4.712;2022-07-12T07:46:45;11.07;;;8.18;;
46551;SDS011;32278;51.810;4.712;2022-07-12T07:49:10;8.10;;;6.82;;
46551;SDS011;32278;51.810;4.712;2022-07-12T07:51:36;9.25;;;7.10;;
46551;SDS011;32278;51.810;4.712;2022-07-12T07:54:01;10.60;;;7.18;;
46551;SDS011;32278;51.810;4.712;2022-07-12T07:56:28;6.47;;;5.88;;
46551;SDS011;32278;51.810;4.712;2022-07-12T07:58:53;7.60;;;6.43;;
46551;SDS011;32278;51.810;4.712;2022-07-12T08:01:19;6.95;;;6.25;;
46551;SDS011;32278;51.810;4.712;2022-07-12T08:03:45;9.75;;;5.50;;
46551;SDS011;32278;51.810;4.712;2022-07-12T08:06:10;8.30;;;5.88;;
46551;SDS011;32278;51.810;4.712;2022-07-12T08:08:36;9.60;;;6.60;;
46551;SDS011;32278;51.810;4.712;2022-07-12T08:11:02;10.40;;;7.32;;
46551;SDS011;32278;51.810;4.712;2022-07-12T08:13:28;7.50;;;6.80;;
46551;SDS011;32278;51.810;4.712;2022-07-12T08:15:53;10.90;;;7.63;;
46551;SDS011;32278;51.810;4.712;2022-07-12T08:18:19;9.02;;;7.85;;
46551;SDS011;32278;51.810;4.712;2022-07-12T08:20:45;11.45;;;7.25;;
46551;SDS011;32278;51.810;4.712;2022-07-12T08:23:11;10.48;;;7.18;;
46551;SDS011;32278;51.810;4.712;2022-07-12T08:25:37;12.13;;;7.22;;
46551;SDS011;32278;51.810;4.712;2022-07-12T08:28:03;8.85;;;6.88;;
46551;SDS011;32278;51.810;4.712;2022-07-12T08:30:29;11.05;;;5.82;;
46551;SDS011;32278;51.810;4.712;2022-07-12T08:32:54;18.80;;;6.90;;
46551;SDS011;32278;51.810;4.712;2022-07-12T08:35:20;7.45;;;6.72;;
46551;SDS011;32278;51.810;4.712;2022-07-12T08:37:45;5.70;;;5.18;;
46551;SDS011;32278;51.810;4.712;2022-07-12T08:40:11;12.38;;;6.35;;
46551;SDS011;32278;51.810;4.712;2022-07-12T08:42:40;6.50;;;5.82;;
46551;SDS011;32278;51.810;4.712;2022-07-12T08:45:06;9.50;;;5.22;;
46551;SDS011;32278;51.810;4.712;2022-07-12T08:47:31;7.15;;;6.38;;
46551;SDS011;32278;51.810;4.712;2022-07-12T08:50:16;7.35;;;6.65;;
46551;SDS011;32278;51.810;4.712;2022-07-12T08:52:53;9.48;;;5.68;;
46551;SDS011;32278;51.810;4.712;2022-07-12T08:57:56;6.40;;;5.78;;
46551;SDS011;32278;51.810;4.712;2022-07-12T09:00:23;9.88;;;6.05;;
46551;SDS011;32278;51.810;4.712;2022-07-12T09:05:18;7.75;;;5.80;;
46551;SDS011;32278;51.810;4.712;2022-07-12T09:07:46;7.97;;;4.90;;
46551;SDS011;32278;51.810;4.712;2022-07-12T09:10:16;6.35;;;5.75;;
46551;SDS011;32278;51.810;4.712;2022-07-12T09:12:42;11.75;;;6.28;;
46551;SDS011;32278;51.810;4.712;2022-07-12T09:15:16;9.90;;;6.97;;
46551;SDS011;32278;51.810;4.712;2022-07-12T09:20:33;8.85;;;6.78;;
46551;SDS011;32278;51.810;4.712;2022-07-12T09:23:04;8.35;;;6.70;;
46551;SDS011;32278;51.810;4.712;2022-07-12T09:25:41;9.07;;;6.15;;
46551;SDS011;32278;51.810;4.712;2022-07-12T09:28:09;8.77;;;6.97;;
46551;SDS011;32278;51.810;4.712;2022-07-12T09:30:35;7.25;;;6.55;;
46551;SDS011;32278;51.810;4.712;2022-07-12T09:33:03;11.30;;;6.90;;
46551;SDS011;32278;51.810;4.712;2022-07-12T09:38:36;9.55;;;6.30;;
46551;SDS011;32278;51.810;4.712;2022-07-12T09:41:03;9.70;;;6.78;;
46551;SDS011;32278;51.810;4.712;2022-07-12T09:43:30;9.75;;;6.88;;
46551;SDS011;32278;51.810;4.712;2022-07-12T09:45:56;14.13;;;8.73;;
46551;SDS011;32278;51.810;4.712;2022-07-12T09:48:22;8.68;;;7.40;;
46551;SDS011;32278;51.810;4.712;2022-07-12T09:50:50;9.05;;;8.18;;
46551;SDS011;32278;51.810;4.712;2022-07-12T09:53:19;7.50;;;6.22;;
46551;SDS011;32278;51.810;4.712;2022-07-12T09:55:48;7.28;;;6.57;;
46551;SDS011;32278;51.810;4.712;2022-07-12T09:58:16;7.47;;;6.70;;
46551;SDS011;32278;51.810;4.712;2022-07-12T10:01:03;10.18;;;9.15;;
46551;SDS011;32278;51.810;4.712;2022-07-12T10:03:32;9.30;;;7.63;;
46551;SDS011;32278;51.810;4.712;2022-07-12T10:06:00;7.10;;;6.25;;
46551;SDS011;32278;51.810;4.712;2022-07-12T10:08:27;7.95;;;5.88;;
46551;SDS011;32278;51.810;4.712;2022-07-12T10:10:54;6.50;;;5.82;;
46551;SDS011;32278;51.810;4.712;2022-07-12T10:13:20;10.70;;;7.57;;
46551;SDS011;32278;51.810;4.712;2022-07-12T10:15:47;6.97;;;5.25;;
46551;SDS011;32278;51.810;4.712;2022-07-12T10:18:16;7.75;;;6.47;;
46551;SDS011;32278;51.810;4.712;2022-07-12T10:20:43;6.28;;;5.68;;
46551;SDS011;32278;51.810;4.712;2022-07-12T10:25:50;7.65;;;4.85;;
46551;SDS011;32278;51.810;4.712;2022-07-12T10:28:16;6.32;;;3.97;;
46551;SDS011;32278;51.810;4.712;2022-07-12T10:30:42;5.03;;;4.53;;
46551;SDS011;32278;51.810;4.712;2022-07-12T10:33:16;5.15;;;4.65;;
46551;SDS011;32278;51.810;4.712;2022-07-12T10:36:04;5.97;;;5.22;;
46551;SDS011;32278;51.810;4.712;2022-07-12T10:38:31;6.85;;;4.05;;
46551;SDS011;32278;51.810;4.712;2022-07-12T10:41:00;4.88;;;4.40;;
46551;SDS011;32278;51.810;4.712;2022-07-12T10:43:42;6.65;;;5.93;;
46551;SDS011;32278;51.810;4.712;2022-07-12T10:46:26;6.38;;;5.55;;
46551;SDS011;32278;51.810;4.712;2022-07-12T10:49:11;9.05;;;4.07;;
46551;SDS011;32278;51.810;4.712;2022-07-12T10:54:36;9.48;;;4.20;;
46551;SDS011;32278;51.810;4.712;2022-07-12T10:57:05;5.72;;;4.88;;
46551;SDS011;32278;51.810;4.712;2022-07-12T10:59:35;7.30;;;5.82;;
46551;SDS011;32278;51.810;4.712;2022-07-12T11:02:02;7.93;;;5.80;;
46551;SDS011;32278;51.810;4.712;2022-07-12T11:04:28;5.70;;;5.10;;
46551;SDS011;32278;51.810;4.712;2022-07-12T11:06:54;4.90;;;4.05;;
46551;SDS011;32278;51.810;4.712;2022-07-12T11:09:22;6.03;;;3.97;;
46551;SDS011;32278;51.810;4.712;2022-07-12T11:11:49;4.22;;;3.83;;
46551;SDS011;32278;51.810;4.712;2022-07-12T11:16:48;6.15;;;5.15;;
46551;SDS011;32278;51.810;4.712;2022-07-12T11:19:20;5.97;;;5.43;;
46551;SDS011;32278;51.810;4.712;2022-07-12T11:21:49;8.98;;;6.40;;
46551;SDS011;32278;51.810;4.712;2022-07-12T11:24:21;4.65;;;4.20;;
46551;SDS011;32278;51.810;4.712;2022-07-12T11:26:48;6.18;;;4.38;;
46551;SDS011;32278;51.810;4.712;2022-07-12T11:29:14;6.13;;;3.65;;
46551;SDS011;32278;51.810;4.712;2022-07-12T11:31:40;4.32;;;3.92;;
46551;SDS011;32278;51.810;4.712;2022-07-12T11:34:05;7.20;;;3.90;;
46551;SDS011;32278;51.810;4.712;2022-07-12T11:36:31;4.22;;;3.55;;
46551;SDS011;32278;51.810;4.712;2022-07-12T11:38:58;8.45;;;3.83;;
46551;SDS011;32278;51.810;4.712;2022-07-12T11:41:25;3.45;;;3.15;;
46551;SDS011;32278;51.810;4.712;2022-07-12T11:43:51;5.47;;;3.97;;
46551;SDS011;32278;51.810;4.712;2022-07-12T11:46:16;6.05;;;3.60;;
46551;SDS011;32278;51.810;4.712;2022-07-12T11:48:42;7.53;;;3.78;;
46551;SDS011;32278;51.810;4.712;2022-07-12T11:51:09;6.03;;;3.67;;
46551;SDS011;32278;51.810;4.712;2022-07-12T11:53:37;3.97;;;2.97;;
46551;SDS011;32278;51.810;4.712;2022-07-12T11:56:04;3.33;;;3.03;;
46551;SDS011;32278;51.810;4.712;2022-07-12T11:58:32;4.25;;;2.97;;
46551;SDS011;32278;51.810;4.712;2022-07-12T12:00:58;5.45;;;3.80;;
46551;SDS011;32278;51.810;4.712;2022-07-12T12:03:24;5.05;;;4.40;;
46551;SDS011;32278;51.810;4.712;2022-07-12T12:05:51;5.18;;;3.60;;
46551;SDS011;32278;51.810;4.712;2022-07-12T12:08:18;3.85;;;3.45;;
46551;SDS011;32278;51.810;4.712;2022-07-12T12:13:23;3.20;;;2.90;;
46551;SDS011;32278;51.810;4.712;2022-07-12T12:15:59;4.90;;;4.28;;
46551;SDS011;32278;51.810;4.712;2022-07-12T12:20:58;4.35;;;3.90;;
46551;SDS011;32278;51.810;4.712;2022-07-12T12:23:26;4.20;;;3.58;;
46551;SDS011;32278;51.810;4.712;2022-07-12T12:25:52;7.28;;;3.88;;
46551;SDS011;32278;51.810;4.712;2022-07-12T12:31:20;4.30;;;3.90;;
46551;SDS011;32278;51.810;4.712;2022-07-12T12:33:48;6.53;;;3.08;;
46551;SDS011;32278;51.810;4.712;2022-07-12T12:38:46;4.30;;;3.75;;
46551;SDS011;32278;51.810;4.712;2022-07-12T12:41:12;6.47;;;4.75;;
46551;SDS011;32278;51.810;4.712;2022-07-12T12:43:38;8.30;;;3.85;;
46551;SDS011;32278;51.810;4.712;2022-07-12T12:46:05;4.15;;;3.72;;
46551;SDS011;32278;51.810;4.712;2022-07-12T12:48:31;5.07;;;4.57;;
46551;SDS011;32278;51.810;4.712;2022-07-12T12:51:08;9.10;;;4.68;;
46551;SDS011;32278;51.810;4.712;2022-07-12T12:53:36;6.00;;;3.90;;
46551;SDS011;32278;51.810;4.712;2022-07-12T12:56:05;7.60;;;4.28;;
46551;SDS011;32278;51.810;4.712;2022-07-12T12:58:35;5.88;;;4.10;;
46551;SDS011;32278;51.810;4.712;2022-07-12T13:01:02;12.50;;;4.22;;
46551;SDS011;32278;51.810;4.712;2022-07-12T13:03:29;6.15;;;3.65;;
46551;SDS011;32278;51.810;4.712;2022-07-12T13:05:55;4.00;;;3.60;;
46551;SDS011;32278;51.810;4.712;2022-07-12T13:08:22;4.82;;;3.70;;
46551;SDS011;32278;51.810;4.712;2022-07-12T13:10:49;6.20;;;2.83;;
46551;SDS011;32278;51.810;4.712;2022-07-12T13:13:36;8.43;;;3.53;;
46551;SDS011;32278;51.810;4.712;2022-07-12T13:16:02;4.00;;;3.08;;
46551;SDS011;32278;51.810;4.712;2022-07-12T13:18:28;3.80;;;2.78;;
46551;SDS011;32278;51.810;4.712;2022-07-12T13:20:53;3.38;;;2.92;;
46551;SDS011;32278;51.810;4.712;2022-07-12T13:23:19;9.35;;;3.58;;
46551;SDS011;32278;51.810;4.712;2022-07-12T13:25:45;3.63;;;3.25;;
46551;SDS011;32278;51.810;4.712;2022-07-12T13:28:10;8.25;;;3.15;;
46551;SDS011;32278;51.810;4.712;2022-07-12T13:30:37;3.80;;;3.03;;
46551;SDS011;32278;51.810;4.712;2022-07-12T13:33:03;4.00;;;3.13;;
46551;SDS011;32278;51.810;4.712;2022-07-12T13:35:28;4.05;;;3.00;;
46551;SDS011;32278;51.810;4.712;2022-07-12T13:37:54;4.60;;;3.33;;
46551;SDS011;32278;51.810;4.712;2022-07-12T13:40:21;4.00;;;3.17;;
46551;SDS011;32278;51.810;4.712;2022-07-12T13:42:50;3.03;;;2.80;;
46551;SDS011;32278;51.810;4.712;2022-07-12T13:45:25;3.83;;;3.05;;
46551;SDS011;32278;51.810;4.712;2022-07-12T13:47:52;4.78;;;3.60;;
46551;SDS011;32278;51.810;4.712;2022-07-12T13:50:19;2.63;;;2.15;;
46551;SDS011;32278;51.810;4.712;2022-07-12T13:52:45;3.20;;;2.42;;
46551;SDS011;32278;51.810;4.712;2022-07-12T13:55:13;3.42;;;3.13;;
46551;SDS011;32278;51.810;4.712;2022-07-12T13:57:40;5.70;;;3.20;;
46551;SDS011;32278;51.810;4.712;2022-07-12T14:00:07;4.78;;;3.40;;
46551;SDS011;32278;51.810;4.712;2022-07-12T14:02:36;4.18;;;3.70;;
46551;SDS011;32278;51.810;4.712;2022-07-12T14:05:06;3.10;;;2.90;;
46551;SDS011;32278;51.810;4.712;2022-07-12T14:07:33;5.50;;;3.10;;
46551;SDS011;32278;51.810;4.712;2022-07-12T14:09:59;4.07;;;3.47;;
46551;SDS011;32278;51.810;4.712;2022-07-12T14:12:25;5.35;;;3.45;;
46551;SDS011;32278;51.810;4.712;2022-07-12T14:14:51;3.55;;;3.30;;
46551;SDS011;32278;51.810;4.712;2022-07-12T14:17:36;3.75;;;3.10;;
46551;SDS011;32278;51.810;4.712;2022-07-12T14:20:06;4.72;;;2.70;;
46551;SDS011;32278;51.810;4.712;2022-07-12T14:22:33;3.72;;;3.17;;
46551;SDS011;32278;51.810;4.712;2022-07-12T14:24:58;5.00;;;2.90;;
46551;SDS011;32278;51.810;4.712;2022-07-12T14:27:24;4.90;;;3.10;;
46551;SDS011;32278;51.810;4.712;2022-07-12T14:29:50;3.50;;;3.20;;
46551;SDS011;32278;51.810;4.712;2022-07-12T14:32:16;3.85;;;3.05;;
46551;SDS011;32278;51.810;4.712;2022-07-12T14:34:42;3.50;;;3.20;;
46551;SDS011;32278;51.810;4.712;2022-07-12T14:37:07;3.95;;;3.13;;
46551;SDS011;32278;51.810;4.712;2022-07-12T14:39:34;9.32;;;3.10;;
46551;SDS011;32278;51.810;4.712;2022-07-12T14:41:59;3.45;;;2.90;;
46551;SDS011;32278;51.810;4.712;2022-07-12T14:44:25;3.40;;;3.10;;
46551;SDS011;32278;51.810;4.712;2022-07-12T14:46:51;3.10;;;2.90;;
46551;SDS011;32278;51.810;4.712;2022-07-12T14:49:20;4.35;;;3.30;;
46551;SDS011;32278;51.810;4.712;2022-07-12T14:51:46;3.42;;;3.13;;
46551;SDS011;32278;51.810;4.712;2022-07-12T14:54:12;6.25;;;3.60;;
46551;SDS011;32278;51.810;4.712;2022-07-12T14:56:38;4.43;;;3.00;;
46551;SDS011;32278;51.810;4.712;2022-07-12T14:59:04;3.53;;;3.20;;
46551;SDS011;32278;51.810;4.712;2022-07-12T15:01:30;4.03;;;3.45;;
46551;SDS011;32278;51.810;4.712;2022-07-12T15:03:56;3.80;;;3.20;;
46551;SDS011;32278;51.810;4.712;2022-07-12T15:06:22;3.67;;;3.03;;
46551;SDS011;32278;51.810;4.712;2022-07-12T15:08:50;5.70;;;3.10;;
46551;SDS011;32278;51.810;4.712;2022-07-12T15:11:16;5.07;;;3.53;;